Time,TemperatureF,DewpointF,PressureIn,WindDirection,WindDirectionDegrees,WindSpeedMPH,WindSpeedGustMPH,Humidity,HourlyPrecipIn,Conditions,Clouds,dailyrainin,SoftwareType,DateUTC
2013-03-09 00:04:00,59.8,55.9,29.97,ESE,113,10.0,-999.0,87,0.00,,,0.00,Wunderground v.1.15,2013-03-09 06:04:00,
2013-03-09 00:09:00,59.8,55.9,29.97,ESE,113,10.0,-999.0,87,0.00,,,0.00,Wunderground v.1.15,2013-03-09 06:09:00,
2013-03-09 00:14:00,59.8,55.9,29.97,ESE,113,10.0,-999.0,87,0.00,,,0.00,Wunderground v.1.15,2013-03-09 06:14:00,
2013-03-09 00:19:00,59.8,55.9,29.97,ESE,113,10.0,-999.0,87,0.00,,,0.00,Wunderground v.1.15,2013-03-09 06:19:00,
2013-03-09 00:24:00,59.8,55.9,29.97,SE,135,9.0,-999.0,87,0.00,,,0.00,Wunderground v.1.15,2013-03-09 06:24:00,
2013-03-09 00:29:00,59.8,55.9,29.97,SE,135,9.0,-999.0,87,0.00,,,0.00,Wunderground v.1.15,2013-03-09 06:29:00,
2013-03-09 00:34:00,59.8,55.9,29.97,SE,135,9.0,-999.0,87,0.00,,,0.00,Wunderground v.1.15,2013-03-09 06:34:00,
2013-03-09 00:39:00,59.6,55.7,29.96,ESE,113,8.0,-999.0,87,0.00,,,0.00,Wunderground v.1.15,2013-03-09 06:39:00,
2013-03-09 00:44:00,59.6,55.7,29.96,ESE,113,8.0,-999.0,87,0.00,,,0.00,Wunderground v.1.15,2013-03-09 06:44:00,
2013-03-09 00:49:00,59.6,55.7,29.96,ESE,113,8.0,-999.0,87,0.00,,,0.00,Wunderground v.1.15,2013-03-09 06:49:00,
2013-03-09 00:54:00,59.6,55.7,29.96,ESE,113,9.0,-999.0,87,0.00,,,0.00,Wunderground v.1.15,2013-03-09 06:54:00,
2013-03-09 00:59:00,59.6,55.7,29.96,ESE,113,9.0,-999.0,87,0.00,,,0.00,Wunderground v.1.15,2013-03-09 06:59:00,
2013-03-09 01:04:00,59.6,55.7,29.96,ESE,113,9.0,-999.0,87,0.00,,,0.00,Wunderground v.1.15,2013-03-09 07:04:00,
2013-03-09 01:09:00,59.3,55.7,29.95,ESE,113,7.0,-999.0,88,0.00,,,0.00,Wunderground v.1.15,2013-03-09 07:09:00,
2013-03-09 01:14:00,59.3,55.7,29.95,ESE,113,7.0,-999.0,88,0.00,,,0.00,Wunderground v.1.15,2013-03-09 07:14:00,
2013-03-09 01:19:00,59.3,55.7,29.95,ESE,113,7.0,-999.0,88,0.00,,,0.00,Wunderground v.1.15,2013-03-09 07:19:00,
2013-03-09 01:24:00,59.5,55.9,29.95,ESE,113,6.0,-999.0,88,0.00,,,0.00,Wunderground v.1.15,2013-03-09 07:24:00,
2013-03-09 01:29:00,59.5,55.9,29.95,ESE,113,6.0,-999.0,88,0.00,,,0.00,Wunderground v.1.15,2013-03-09 07:29:00,
2013-03-09 01:34:00,59.5,55.9,29.95,ESE,113,6.0,-999.0,88,0.00,,,0.00,Wunderground v.1.15,2013-03-09 07:34:00,
2013-03-09 01:39:00,59.4,55.8,29.95,ESE,113,6.0,-999.0,88,0.00,,,0.00,Wunderground v.1.15,2013-03-09 07:39:00,
2013-03-09 01:44:00,59.4,55.8,29.95,ESE,113,6.0,-999.0,88,0.00,,,0.00,Wunderground v.1.15,2013-03-09 07:44:00,
2013-03-09 01:49:00,59.4,55.8,29.95,ESE,113,6.0,-999.0,88,0.00,,,0.00,Wunderground v.1.15,2013-03-09 07:49:00,
2013-03-09 01:54:00,59.5,56.3,29.95,ESE,113,7.0,-999.0,89,0.00,,,0.00,Wunderground v.1.15,2013-03-09 07:54:00,
2013-03-09 01:59:00,59.5,56.3,29.95,ESE,113,7.0,-999.0,89,0.00,,,0.00,Wunderground v.1.15,2013-03-09 07:59:00,
2013-03-09 02:04:00,59.5,56.3,29.95,ESE,113,7.0,-999.0,89,0.00,,,0.00,Wunderground v.1.15,2013-03-09 08:04:00,
2013-03-09 02:09:00,59.6,56.4,29.95,ESE,113,6.0,-999.0,89,0.00,,,0.00,Wunderground v.1.15,2013-03-09 08:09:00,
2013-03-09 02:14:00,59.6,56.4,29.95,ESE,113,6.0,-999.0,89,0.00,,,0.00,Wunderground v.1.15,2013-03-09 08:14:00,
2013-03-09 02:19:00,59.6,56.4,29.95,ESE,113,6.0,-999.0,89,0.00,,,0.00,Wunderground v.1.15,2013-03-09 08:19:00,
2013-03-09 02:24:00,59.8,56.6,29.94,ESE,113,6.0,-999.0,89,0.00,,,0.00,Wunderground v.1.15,2013-03-09 08:24:00,
2013-03-09 02:29:00,59.8,56.6,29.94,ESE,113,6.0,-999.0,89,0.00,,,0.00,Wunderground v.1.15,2013-03-09 08:29:00,
2013-03-09 02:34:00,59.8,56.6,29.94,ESE,113,6.0,-999.0,89,0.00,,,0.00,Wunderground v.1.15,2013-03-09 08:34:00,
2013-03-09 02:39:00,59.9,56.6,29.95,ESE,113,6.0,-999.0,89,0.00,,,0.00,Wunderground v.1.15,2013-03-09 08:39:00,
2013-03-09 02:44:00,59.9,56.6,29.95,ESE,113,6.0,-999.0,89,0.00,,,0.00,Wunderground v.1.15,2013-03-09 08:44:00,
2013-03-09 02:49:00,59.9,56.6,29.95,ESE,113,6.0,-999.0,89,0.00,,,0.00,Wunderground v.1.15,2013-03-09 08:49:00,
2013-03-09 02:54:00,60.2,56.9,29.94,SE,135,7.0,-999.0,89,0.00,,,0.00,Wunderground v.1.15,2013-03-09 08:54:00,
2013-03-09 02:59:00,60.2,56.9,29.94,SE,135,7.0,-999.0,89,0.00,,,0.00,Wunderground v.1.15,2013-03-09 08:59:00,
2013-03-09 03:04:00,60.2,56.9,29.94,SE,135,7.0,-999.0,89,0.00,,,0.00,Wunderground v.1.15,2013-03-09 09:04:00,
2013-03-09 03:09:00,60.3,57.0,29.94,ESE,113,6.0,-999.0,89,0.00,,,0.00,Wunderground v.1.15,2013-03-09 09:09:00,
2013-03-09 03:14:00,60.3,57.0,29.94,ESE,113,6.0,-999.0,89,0.00,,,0.00,Wunderground v.1.15,2013-03-09 09:14:00,
2013-03-09 03:19:00,60.3,57.0,29.94,ESE,113,6.0,-999.0,89,0.00,,,0.00,Wunderground v.1.15,2013-03-09 09:19:00,
2013-03-09 03:24:00,60.3,57.0,29.94,ESE,113,7.0,-999.0,89,0.00,,,0.00,Wunderground v.1.15,2013-03-09 09:24:00,
2013-03-09 03:29:00,60.3,57.0,29.94,ESE,113,7.0,-999.0,89,0.00,,,0.00,Wunderground v.1.15,2013-03-09 09:29:00,
2013-03-09 03:34:00,60.3,57.0,29.94,ESE,113,7.0,-999.0,89,0.00,,,0.00,Wunderground v.1.15,2013-03-09 09:34:00,
2013-03-09 03:39:00,60.5,57.2,29.93,ESE,113,10.0,-999.0,89,0.00,,,0.00,Wunderground v.1.15,2013-03-09 09:39:00,
2013-03-09 03:44:00,60.5,57.2,29.93,ESE,113,10.0,-999.0,89,0.00,,,0.00,Wunderground v.1.15,2013-03-09 09:44:00,
2013-03-09 03:49:00,60.5,57.2,29.93,ESE,113,10.0,-999.0,89,0.00,,,0.00,Wunderground v.1.15,2013-03-09 09:49:00,
2013-03-09 03:54:00,60.6,57.3,29.93,ESE,113,8.0,-999.0,89,0.00,,,0.00,Wunderground v.1.15,2013-03-09 09:54:00,
2013-03-09 03:59:00,60.6,57.3,29.93,ESE,113,8.0,-999.0,89,0.00,,,0.00,Wunderground v.1.15,2013-03-09 09:59:00,
2013-03-09 04:04:00,60.6,57.3,29.93,ESE,113,8.0,-999.0,89,0.00,,,0.00,Wunderground v.1.15,2013-03-09 10:04:00,
2013-03-09 04:09:00,61.0,57.7,29.93,ESE,113,9.0,-999.0,89,0.00,,,0.00,Wunderground v.1.15,2013-03-09 10:09:00,
2013-03-09 04:14:00,61.0,57.7,29.93,ESE,113,9.0,-999.0,89,0.00,,,0.00,Wunderground v.1.15,2013-03-09 10:14:00,
2013-03-09 04:19:00,61.0,57.7,29.93,ESE,113,9.0,-999.0,89,0.00,,,0.00,Wunderground v.1.15,2013-03-09 10:19:00,
2013-03-09 04:24:00,61.4,58.1,29.93,SE,135,11.0,-999.0,89,0.00,,,0.00,Wunderground v.1.15,2013-03-09 10:24:00,
2013-03-09 04:29:00,61.4,58.1,29.93,SE,135,11.0,-999.0,89,0.00,,,0.00,Wunderground v.1.15,2013-03-09 10:29:00,
2013-03-09 04:34:00,61.4,58.1,29.93,SE,135,11.0,-999.0,89,0.00,,,0.00,Wunderground v.1.15,2013-03-09 10:34:00,
2013-03-09 04:39:00,61.5,58.2,29.93,SE,135,10.0,-999.0,89,0.00,,,0.00,Wunderground v.1.15,2013-03-09 10:39:00,
2013-03-09 04:44:00,61.5,58.2,29.93,SE,135,10.0,-999.0,89,0.00,,,0.00,Wunderground v.1.15,2013-03-09 10:44:00,
2013-03-09 04:49:00,61.5,58.2,29.93,SE,135,10.0,-999.0,89,0.00,,,0.00,Wunderground v.1.15,2013-03-09 10:49:00,
2013-03-09 04:54:00,61.5,58.2,29.94,ESE,113,9.0,-999.0,89,0.00,,,0.00,Wunderground v.1.15,2013-03-09 10:54:00,
2013-03-09 04:59:00,61.5,58.2,29.94,ESE,113,9.0,-999.0,89,0.00,,,0.00,Wunderground v.1.15,2013-03-09 10:59:00,
2013-03-09 05:04:00,61.5,58.2,29.94,ESE,113,9.0,-999.0,89,0.00,,,0.00,Wunderground v.1.15,2013-03-09 11:04:00,
2013-03-09 05:09:00,61.5,58.2,29.94,ESE,113,10.0,-999.0,89,0.00,,,0.00,Wunderground v.1.15,2013-03-09 11:09:00,
2013-03-09 05:14:00,61.5,58.2,29.94,ESE,113,10.0,-999.0,89,0.00,,,0.00,Wunderground v.1.15,2013-03-09 11:14:00,
2013-03-09 05:19:00,61.5,58.2,29.94,ESE,113,10.0,-999.0,89,0.00,,,0.00,Wunderground v.1.15,2013-03-09 11:19:00,
2013-03-09 05:24:00,61.6,58.3,29.93,SE,135,11.0,-999.0,89,0.00,,,0.00,Wunderground v.1.15,2013-03-09 11:24:00,
2013-03-09 05:29:00,61.6,58.3,29.93,SE,135,11.0,-999.0,89,0.00,,,0.00,Wunderground v.1.15,2013-03-09 11:29:00,
2013-03-09 05:34:00,61.6,58.3,29.93,SE,135,11.0,-999.0,89,0.00,,,0.00,Wunderground v.1.15,2013-03-09 11:34:00,
2013-03-09 05:39:00,61.8,58.5,29.93,SE,135,10.0,-999.0,89,0.00,,,0.00,Wunderground v.1.15,2013-03-09 11:39:00,
2013-03-09 05:44:00,61.8,58.5,29.93,SE,135,10.0,-999.0,89,0.00,,,0.00,Wunderground v.1.15,2013-03-09 11:44:00,
2013-03-09 05:49:00,61.8,58.5,29.93,SE,135,10.0,-999.0,89,0.00,,,0.00,Wunderground v.1.15,2013-03-09 11:49:00,
2013-03-09 05:54:00,61.9,58.6,29.93,ESE,113,9.0,-999.0,89,0.00,,,0.00,Wunderground v.1.15,2013-03-09 11:54:00,
2013-03-09 05:59:00,61.9,58.6,29.93,ESE,113,9.0,-999.0,89,0.00,,,0.00,Wunderground v.1.15,2013-03-09 11:59:00,
2013-03-09 06:04:00,61.9,58.6,29.93,ESE,113,9.0,-999.0,89,0.00,,,0.00,Wunderground v.1.15,2013-03-09 12:04:00,
2013-03-09 06:09:00,62.1,58.8,29.92,ESE,113,10.0,-999.0,89,0.00,,,0.00,Wunderground v.1.15,2013-03-09 12:09:00,
2013-03-09 06:14:00,62.1,58.8,29.92,ESE,113,10.0,-999.0,89,0.00,,,0.00,Wunderground v.1.15,2013-03-09 12:14:00,
2013-03-09 06:19:00,62.1,58.8,29.92,ESE,113,10.0,-999.0,89,0.00,,,0.00,Wunderground v.1.15,2013-03-09 12:19:00,
2013-03-09 06:24:00,62.6,59.3,29.92,SE,135,10.0,-999.0,89,0.00,,,0.00,Wunderground v.1.15,2013-03-09 12:24:00,
2013-03-09 06:29:00,62.6,59.3,29.92,SE,135,10.0,-999.0,89,0.00,,,0.00,Wunderground v.1.15,2013-03-09 12:29:00,
2013-03-09 06:34:00,62.6,59.3,29.92,SE,135,10.0,-999.0,89,0.00,,,0.00,Wunderground v.1.15,2013-03-09 12:34:00,
2013-03-09 06:39:00,63.3,59.7,29.91,SE,135,11.0,-999.0,88,0.00,,,0.00,Wunderground v.1.15,2013-03-09 12:39:00,
2013-03-09 06:44:00,63.3,59.7,29.91,SE,135,11.0,-999.0,88,0.00,,,0.00,Wunderground v.1.15,2013-03-09 12:44:00,
2013-03-09 06:49:00,63.3,59.7,29.91,SE,135,11.0,-999.0,88,0.00,,,0.00,Wunderground v.1.15,2013-03-09 12:49:00,
2013-03-09 06:54:00,64.4,60.4,29.90,SE,135,12.0,-999.0,87,0.00,,,0.00,Wunderground v.1.15,2013-03-09 12:54:00,
2013-03-09 06:59:00,64.4,60.4,29.90,SE,135,12.0,-999.0,87,0.00,,,0.00,Wunderground v.1.15,2013-03-09 12:59:00,
2013-03-09 07:04:00,64.4,60.4,29.90,SE,135,12.0,-999.0,87,0.00,,,0.00,Wunderground v.1.15,2013-03-09 13:04:00,
2013-03-09 07:09:00,65.3,61.0,29.90,SE,135,13.0,-999.0,86,0.00,,,0.00,Wunderground v.1.15,2013-03-09 13:09:00,
2013-03-09 07:14:00,65.3,61.0,29.90,SE,135,13.0,-999.0,86,0.00,,,0.00,Wunderground v.1.15,2013-03-09 13:14:00,
2013-03-09 07:19:00,65.3,61.0,29.90,SE,135,13.0,-999.0,86,0.00,,,0.00,Wunderground v.1.15,2013-03-09 13:19:00,
2013-03-09 07:24:00,65.9,60.9,29.89,SE,135,14.0,-999.0,84,0.00,,,0.00,Wunderground v.1.15,2013-03-09 13:24:00,
2013-03-09 07:29:00,65.9,60.9,29.89,SE,135,14.0,-999.0,84,0.00,,,0.00,Wunderground v.1.15,2013-03-09 13:29:00,
2013-03-09 07:34:00,65.9,60.9,29.89,SE,135,14.0,-999.0,84,0.00,,,0.00,Wunderground v.1.15,2013-03-09 13:34:00,
2013-03-09 07:39:00,67.0,61.7,29.88,SE,135,14.0,-999.0,83,0.00,,,0.00,Wunderground v.1.15,2013-03-09 13:39:00,
2013-03-09 07:44:00,67.0,61.7,29.88,SE,135,14.0,-999.0,83,0.00,,,0.00,Wunderground v.1.15,2013-03-09 13:44:00,
2013-03-09 07:49:00,67.0,61.7,29.88,SE,135,14.0,-999.0,83,0.00,,,0.00,Wunderground v.1.15,2013-03-09 13:49:00,
2013-03-09 07:54:00,68.1,62.0,29.88,SE,135,15.0,-999.0,81,0.00,,,0.00,Wunderground v.1.15,2013-03-09 13:54:00,
2013-03-09 07:59:00,61.5,58.2,29.93,ESE,109,9.0,19.0,89,0.00,,,0.00,Wunderground v.1.15,2013-03-09 13:59:00,
2013-03-09 08:04:00,68.1,62.0,29.88,SE,135,15.0,-999.0,81,0.00,,,0.00,Wunderground v.1.15,2013-03-09 14:04:00,
2013-03-09 08:09:00,69.4,62.6,29.88,SE,135,17.0,-999.0,79,0.00,,,0.00,Wunderground v.1.15,2013-03-09 14:09:00,
2013-03-09 08:14:00,69.4,62.6,29.88,SE,135,17.0,-999.0,79,0.00,,,0.00,Wunderground v.1.15,2013-03-09 14:14:00,
2013-03-09 08:19:00,69.4,62.6,29.88,SE,135,17.0,-999.0,79,0.00,,,0.00,Wunderground v.1.15,2013-03-09 14:19:00,
2013-03-09 08:24:00,68.9,62.1,29.88,SE,135,15.0,-999.0,79,0.00,,,0.00,Wunderground v.1.15,2013-03-09 14:24:00,
2013-03-09 08:29:00,68.9,62.1,29.88,SE,135,15.0,-999.0,79,0.00,,,0.00,Wunderground v.1.15,2013-03-09 14:29:00,
2013-03-09 08:34:00,68.9,62.1,29.88,SE,135,15.0,-999.0,79,0.00,,,0.00,Wunderground v.1.15,2013-03-09 14:34:00,
2013-03-09 08:39:00,68.8,62.4,29.88,SE,135,14.0,-999.0,80,0.00,,,0.00,Wunderground v.1.15,2013-03-09 14:39:00,
2013-03-09 08:42:00,68.8,62.4,29.88,SE,135,14.0,-999.0,80,0.00,,,0.00,Wunderground v.1.15,2013-03-09 14:42:00,
2013-03-09 08:44:00,68.8,62.4,29.88,SE,135,14.0,-999.0,80,0.00,,,0.00,Wunderground v.1.15,2013-03-09 14:44:00,
2013-03-09 08:47:00,68.8,62.4,29.88,SE,135,14.0,-999.0,80,0.00,,,0.00,Wunderground v.1.15,2013-03-09 14:47:00,
2013-03-09 08:49:00,68.8,62.4,29.88,SE,135,14.0,-999.0,80,0.00,,,0.00,Wunderground v.1.15,2013-03-09 14:49:00,
2013-03-09 08:52:00,68.8,62.4,29.88,SE,135,14.0,-999.0,80,0.00,,,0.00,Wunderground v.1.15,2013-03-09 14:52:00,
2013-03-09 08:54:00,69.2,62.4,29.86,SE,135,12.0,-999.0,79,0.00,,,0.00,Wunderground v.1.15,2013-03-09 14:54:00,
2013-03-09 08:57:00,69.2,62.4,29.86,SE,135,12.0,-999.0,79,0.00,,,0.00,Wunderground v.1.15,2013-03-09 14:57:00,
2013-03-09 08:59:00,69.2,62.4,29.86,SE,135,12.0,-999.0,79,0.00,,,0.00,Wunderground v.1.15,2013-03-09 14:59:00,
2013-03-09 09:02:00,69.2,62.4,29.86,SE,135,12.0,-999.0,79,0.00,,,0.00,Wunderground v.1.15,2013-03-09 15:02:00,
2013-03-09 09:04:00,69.2,62.4,29.86,SE,135,12.0,-999.0,79,0.00,,,0.00,Wunderground v.1.15,2013-03-09 15:04:00,
2013-03-09 09:07:00,69.2,62.4,29.86,SE,135,12.0,-999.0,79,0.00,,,0.00,Wunderground v.1.15,2013-03-09 15:07:00,
2013-03-09 09:09:00,69.5,62.7,29.86,SE,135,13.0,-999.0,79,0.00,,,0.00,Wunderground v.1.15,2013-03-09 15:09:00,
2013-03-09 09:12:00,69.5,62.7,29.86,SE,135,13.0,-999.0,79,0.00,,,0.00,Wunderground v.1.15,2013-03-09 15:12:00,
2013-03-09 09:14:00,69.5,62.7,29.86,SE,135,13.0,-999.0,79,0.00,,,0.00,Wunderground v.1.15,2013-03-09 15:14:00,
2013-03-09 09:17:00,69.5,62.7,29.86,SE,135,13.0,-999.0,79,0.00,,,0.00,Wunderground v.1.15,2013-03-09 15:17:00,
2013-03-09 09:19:00,69.5,62.7,29.86,SE,135,13.0,-999.0,79,0.00,,,0.00,Wunderground v.1.15,2013-03-09 15:19:00,
2013-03-09 09:22:00,69.5,62.7,29.86,SE,135,13.0,-999.0,79,0.00,,,0.00,Wunderground v.1.15,2013-03-09 15:22:00,
2013-03-09 09:24:00,69.7,62.9,29.85,SE,135,12.0,-999.0,79,0.00,,,0.00,Wunderground v.1.15,2013-03-09 15:24:00,
2013-03-09 09:27:00,69.7,62.9,29.85,SE,135,12.0,-999.0,79,0.00,,,0.00,Wunderground v.1.15,2013-03-09 15:27:00,
2013-03-09 09:29:00,69.7,62.9,29.85,SE,135,12.0,-999.0,79,0.00,,,0.00,Wunderground v.1.15,2013-03-09 15:29:00,
2013-03-09 09:32:00,69.7,62.9,29.85,SE,135,12.0,-999.0,79,0.00,,,0.00,Wunderground v.1.15,2013-03-09 15:32:00,
2013-03-09 09:34:00,69.7,62.9,29.85,SE,135,12.0,-999.0,79,0.00,,,0.00,Wunderground v.1.15,2013-03-09 15:34:00,
2013-03-09 09:37:00,69.7,62.9,29.85,SE,135,12.0,-999.0,79,0.00,,,0.00,Wunderground v.1.15,2013-03-09 15:37:00,
2013-03-09 09:39:00,69.7,62.9,29.85,SE,135,10.0,-999.0,79,0.00,,,0.00,Wunderground v.1.15,2013-03-09 15:39:00,
2013-03-09 09:42:00,69.7,62.9,29.85,SE,135,10.0,-999.0,79,0.00,,,0.00,Wunderground v.1.15,2013-03-09 15:42:00,
2013-03-09 09:44:00,69.7,62.9,29.85,SE,135,10.0,-999.0,79,0.00,,,0.00,Wunderground v.1.15,2013-03-09 15:44:00,
2013-03-09 09:47:00,69.7,62.9,29.85,SE,135,10.0,-999.0,79,0.00,,,0.00,Wunderground v.1.15,2013-03-09 15:47:00,
2013-03-09 09:49:00,69.7,62.9,29.85,SE,135,10.0,-999.0,79,0.00,,,0.00,Wunderground v.1.15,2013-03-09 15:49:00,
2013-03-09 09:52:00,69.7,62.9,29.85,SE,135,10.0,-999.0,79,0.00,,,0.00,Wunderground v.1.15,2013-03-09 15:52:00,
2013-03-09 09:54:00,69.6,62.8,29.84,SE,135,10.0,-999.0,79,0.00,,,0.00,Wunderground v.1.15,2013-03-09 15:54:00,
2013-03-09 09:57:00,69.6,62.8,29.84,SE,135,10.0,-999.0,79,0.00,,,0.00,Wunderground v.1.15,2013-03-09 15:57:00,
2013-03-09 09:59:00,69.6,62.8,29.84,SE,135,10.0,-999.0,79,0.00,,,0.00,Wunderground v.1.15,2013-03-09 15:59:00,
2013-03-09 10:02:00,69.6,62.8,29.84,SE,135,10.0,-999.0,79,0.00,,,0.00,Wunderground v.1.15,2013-03-09 16:02:00,
2013-03-09 10:04:00,69.6,62.8,29.84,SE,135,10.0,-999.0,79,0.00,,,0.00,Wunderground v.1.15,2013-03-09 16:04:00,
2013-03-09 10:07:00,69.6,62.8,29.84,SE,135,10.0,-999.0,79,0.00,,,0.00,Wunderground v.1.15,2013-03-09 16:07:00,
2013-03-09 10:09:00,69.7,62.5,29.83,SE,135,9.0,-999.0,78,0.00,,,0.00,Wunderground v.1.15,2013-03-09 16:09:00,
2013-03-09 10:12:00,69.7,62.5,29.83,SE,135,9.0,-999.0,78,0.00,,,0.00,Wunderground v.1.15,2013-03-09 16:12:00,
2013-03-09 10:14:00,69.7,62.5,29.83,SE,135,9.0,-999.0,78,0.00,,,0.00,Wunderground v.1.15,2013-03-09 16:14:00,
2013-03-09 10:17:00,69.7,62.5,29.83,SE,135,9.0,-999.0,78,0.00,,,0.00,Wunderground v.1.15,2013-03-09 16:17:00,
2013-03-09 10:22:00,69.7,62.5,29.83,SE,135,9.0,-999.0,78,0.00,,,0.00,Wunderground v.1.15,2013-03-09 16:22:00,
2013-03-09 10:27:00,70.2,63.0,29.82,ESE,113,8.0,-999.0,78,0.00,,,0.00,Wunderground v.1.15,2013-03-09 16:27:00,
2013-03-09 10:32:00,70.2,63.0,29.82,ESE,113,8.0,-999.0,78,0.00,,,0.00,Wunderground v.1.15,2013-03-09 16:32:00,
2013-03-09 10:37:00,70.2,63.0,29.82,ESE,113,8.0,-999.0,78,0.00,,,0.00,Wunderground v.1.15,2013-03-09 16:37:00,
2013-03-09 10:42:00,70.6,63.0,29.81,SSE,158,6.0,-999.0,77,0.00,,,0.00,Wunderground v.1.15,2013-03-09 16:42:00,
2013-03-09 10:47:00,70.6,63.0,29.81,SSE,158,6.0,-999.0,77,0.00,,,0.00,Wunderground v.1.15,2013-03-09 16:47:00,
2013-03-09 10:52:00,70.6,63.0,29.81,SSE,158,6.0,-999.0,77,0.00,,,0.00,Wunderground v.1.15,2013-03-09 16:52:00,
2013-03-09 10:57:00,71.3,63.0,29.79,SE,135,10.0,-999.0,75,0.00,,,0.00,Wunderground v.1.15,2013-03-09 16:57:00,
2013-03-09 11:00:00,71.3,63.0,29.79,SE,135,10.0,-999.0,75,0.00,,,0.84,Wunderground v.1.15,2013-03-09 17:00:00,
2013-03-09 11:02:00,71.3,63.0,29.79,SE,135,10.0,-999.0,75,0.00,,,0.00,Wunderground v.1.15,2013-03-09 17:02:00,
2013-03-09 11:05:00,71.3,63.0,29.79,SE,135,10.0,-999.0,75,0.00,,,0.84,Wunderground v.1.15,2013-03-09 17:05:00,
2013-03-09 11:07:00,71.3,63.0,29.79,SE,135,10.0,-999.0,75,0.00,,,0.00,Wunderground v.1.15,2013-03-09 17:07:00,
2013-03-09 11:10:00,71.5,63.2,29.79,SE,135,8.0,-999.0,75,0.00,,,0.84,Wunderground v.1.15,2013-03-09 17:10:00,
2013-03-09 11:12:00,71.5,63.2,29.79,SE,135,8.0,-999.0,75,0.00,,,0.00,Wunderground v.1.15,2013-03-09 17:12:00,
2013-03-09 11:15:00,71.5,63.2,29.79,SE,135,8.0,-999.0,75,0.00,,,0.84,Wunderground v.1.15,2013-03-09 17:15:00,
2013-03-09 11:17:00,71.5,63.2,29.79,SE,135,8.0,-999.0,75,0.00,,,0.00,Wunderground v.1.15,2013-03-09 17:17:00,
2013-03-09 11:20:00,71.5,63.2,29.79,SE,135,8.0,-999.0,75,0.00,,,0.84,Wunderground v.1.15,2013-03-09 17:20:00,
2013-03-09 11:22:00,71.5,63.2,29.79,SE,135,8.0,-999.0,75,0.00,,,0.00,Wunderground v.1.15,2013-03-09 17:22:00,
2013-03-09 11:25:00,71.5,63.2,29.78,SE,135,7.0,-999.0,75,0.00,,,0.84,Wunderground v.1.15,2013-03-09 17:25:00,
2013-03-09 11:27:00,71.5,63.2,29.78,SE,135,7.0,-999.0,75,0.00,,,0.00,Wunderground v.1.15,2013-03-09 17:27:00,
2013-03-09 11:30:00,71.5,63.2,29.78,SE,135,7.0,-999.0,75,0.00,,,0.84,Wunderground v.1.15,2013-03-09 17:30:00,
2013-03-09 11:32:00,71.5,63.2,29.78,SE,135,7.0,-999.0,75,0.00,,,0.00,Wunderground v.1.15,2013-03-09 17:32:00,
2013-03-09 11:35:00,71.5,63.2,29.78,SE,135,7.0,-999.0,75,0.00,,,0.84,Wunderground v.1.15,2013-03-09 17:35:00,
2013-03-09 11:37:00,71.5,63.2,29.78,SE,135,7.0,-999.0,75,0.00,,,0.00,Wunderground v.1.15,2013-03-09 17:37:00,
2013-03-09 11:40:00,71.3,63.0,29.79,SSE,158,7.0,-999.0,75,0.00,,,0.84,Wunderground v.1.15,2013-03-09 17:40:00,
2013-03-09 11:42:00,71.3,63.0,29.79,SSE,158,7.0,-999.0,75,0.00,,,0.00,Wunderground v.1.15,2013-03-09 17:42:00,
2013-03-09 11:45:00,71.3,63.0,29.79,SSE,158,7.0,-999.0,75,0.00,,,0.84,Wunderground v.1.15,2013-03-09 17:45:00,
2013-03-09 11:47:00,71.3,63.0,29.79,SSE,158,7.0,-999.0,75,0.00,,,0.00,Wunderground v.1.15,2013-03-09 17:47:00,
2013-03-09 11:50:00,71.3,63.0,29.79,SSE,158,7.0,-999.0,75,0.00,,,0.84,Wunderground v.1.15,2013-03-09 17:50:00,
2013-03-09 11:55:00,71.4,63.1,29.78,SSE,158,8.0,-999.0,75,0.00,,,0.84,Wunderground v.1.15,2013-03-09 17:55:00,
2013-03-09 11:57:00,71.4,63.1,29.78,SSE,158,8.0,-999.0,75,0.00,,,0.00,Wunderground v.1.15,2013-03-09 17:57:00,
2013-03-09 12:00:00,71.4,63.1,29.78,SSE,158,8.0,-999.0,75,0.00,,,0.84,Wunderground v.1.15,2013-03-09 18:00:00,
2013-03-09 12:02:00,71.4,63.1,29.78,SSE,158,8.0,-999.0,75,0.00,,,0.00,Wunderground v.1.15,2013-03-09 18:02:00,
2013-03-09 12:05:00,71.4,63.1,29.78,SSE,158,8.0,-999.0,75,0.00,,,0.84,Wunderground v.1.15,2013-03-09 18:05:00,
2013-03-09 12:07:00,71.4,63.1,29.78,SSE,158,8.0,-999.0,75,0.00,,,0.00,Wunderground v.1.15,2013-03-09 18:07:00,
2013-03-09 12:10:00,71.5,63.2,29.78,SSE,158,8.0,-999.0,75,0.00,,,0.84,Wunderground v.1.15,2013-03-09 18:10:00,
2013-03-09 12:12:00,71.5,63.2,29.78,SSE,158,8.0,-999.0,75,0.00,,,0.00,Wunderground v.1.15,2013-03-09 18:12:00,
2013-03-09 12:15:00,71.5,63.2,29.78,SSE,158,8.0,-999.0,75,0.00,,,0.84,Wunderground v.1.15,2013-03-09 18:15:00,
2013-03-09 12:17:00,71.5,63.2,29.78,SSE,158,8.0,-999.0,75,0.00,,,0.00,Wunderground v.1.15,2013-03-09 18:17:00,
2013-03-09 12:20:00,71.5,63.2,29.78,SSE,158,8.0,-999.0,75,0.00,,,0.84,Wunderground v.1.15,2013-03-09 18:20:00,
2013-03-09 12:25:00,71.6,63.3,29.77,SSE,158,10.0,-999.0,75,0.00,,,0.84,Wunderground v.1.15,2013-03-09 18:25:00,
2013-03-09 12:27:00,71.6,63.3,29.77,SSE,158,10.0,-999.0,75,0.00,,,0.00,Wunderground v.1.15,2013-03-09 18:27:00,
2013-03-09 12:30:00,71.6,63.3,29.77,SSE,158,10.0,-999.0,75,0.00,,,0.84,Wunderground v.1.15,2013-03-09 18:30:00,
2013-03-09 12:35:00,71.6,63.3,29.77,SSE,158,10.0,-999.0,75,0.00,,,0.84,Wunderground v.1.15,2013-03-09 18:35:00,
2013-03-09 12:37:00,71.6,63.3,29.77,SSE,158,10.0,-999.0,75,0.00,,,0.00,Wunderground v.1.15,2013-03-09 18:37:00,
2013-03-09 12:40:00,71.6,63.3,29.76,SSE,158,10.0,-999.0,75,0.00,,,0.84,Wunderground v.1.15,2013-03-09 18:40:00,
2013-03-09 12:42:00,71.6,63.3,29.76,SSE,158,10.0,-999.0,75,0.00,,,0.00,Wunderground v.1.15,2013-03-09 18:42:00,
2013-03-09 12:45:00,71.6,63.3,29.76,SSE,158,10.0,-999.0,75,0.00,,,0.00,Wunderground v.1.15,2013-03-09 18:45:00,
2013-03-09 12:47:00,71.6,63.3,29.76,SSE,158,10.0,-999.0,75,0.00,,,0.00,Wunderground v.1.15,2013-03-09 18:47:00,
2013-03-09 12:50:00,71.6,63.3,29.76,SSE,158,10.0,-999.0,75,0.00,,,0.00,Wunderground v.1.15,2013-03-09 18:50:00,
2013-03-09 12:52:00,71.6,63.3,29.76,SSE,158,10.0,-999.0,75,0.00,,,0.00,Wunderground v.1.15,2013-03-09 18:52:00,
2013-03-09 12:55:00,72.0,63.3,29.75,SE,135,10.0,-999.0,74,0.00,,,0.00,Wunderground v.1.15,2013-03-09 18:55:00,
2013-03-09 12:57:00,69.6,62.8,29.84,SSE,157,10.0,13.0,79,0.00,,,0.00,Wunderground v.1.15,2013-03-09 18:57:00,
2013-03-09 13:00:00,72.0,63.3,29.75,SE,135,10.0,-999.0,74,0.00,,,0.00,Wunderground v.1.15,2013-03-09 19:00:00,
2013-03-09 13:02:00,72.0,63.3,29.75,SE,135,10.0,-999.0,74,0.00,,,0.00,Wunderground v.1.15,2013-03-09 19:02:00,
2013-03-09 13:05:00,72.0,63.3,29.75,SE,135,10.0,-999.0,74,0.00,,,0.00,Wunderground v.1.15,2013-03-09 19:05:00,
2013-03-09 13:07:00,72.0,63.3,29.75,SE,135,10.0,-999.0,74,0.00,,,0.00,Wunderground v.1.15,2013-03-09 19:07:00,
2013-03-09 13:10:00,72.1,63.0,29.75,SSE,158,10.0,-999.0,73,0.00,,,0.00,Wunderground v.1.15,2013-03-09 19:10:00,
2013-03-09 13:12:00,72.1,63.0,29.75,SSE,158,10.0,-999.0,73,0.00,,,0.00,Wunderground v.1.15,2013-03-09 19:12:00,
2013-03-09 13:15:00,72.1,63.0,29.75,SSE,158,10.0,-999.0,73,0.00,,,0.00,Wunderground v.1.15,2013-03-09 19:15:00,
2013-03-09 13:17:00,72.1,63.0,29.75,SSE,158,10.0,-999.0,73,0.00,,,0.00,Wunderground v.1.15,2013-03-09 19:17:00,
2013-03-09 13:20:00,72.1,63.0,29.75,SSE,158,10.0,-999.0,73,0.00,,,0.00,Wunderground v.1.15,2013-03-09 19:20:00,
2013-03-09 13:22:00,72.1,63.0,29.75,SSE,158,10.0,-999.0,73,0.00,,,0.00,Wunderground v.1.15,2013-03-09 19:22:00,
2013-03-09 13:25:00,72.1,63.0,29.74,SSE,158,9.0,-999.0,73,0.00,,,0.00,Wunderground v.1.15,2013-03-09 19:25:00,
2013-03-09 13:27:00,72.1,63.0,29.74,SSE,158,9.0,-999.0,73,0.00,,,0.00,Wunderground v.1.15,2013-03-09 19:27:00,
2013-03-09 13:30:00,72.1,63.0,29.74,SSE,158,9.0,-999.0,73,0.00,,,0.00,Wunderground v.1.15,2013-03-09 19:30:00,
2013-03-09 13:32:00,72.1,63.0,29.74,SSE,158,9.0,-999.0,73,0.00,,,0.00,Wunderground v.1.15,2013-03-09 19:32:00,
2013-03-09 13:35:00,72.1,63.0,29.74,SSE,158,9.0,-999.0,73,0.00,,,0.00,Wunderground v.1.15,2013-03-09 19:35:00,
2013-03-09 13:37:00,72.1,63.0,29.74,SSE,158,9.0,-999.0,73,0.00,,,0.00,Wunderground v.1.15,2013-03-09 19:37:00,
2013-03-09 13:40:00,72.2,63.1,29.74,SSE,158,8.0,-999.0,73,0.00,,,0.00,Wunderground v.1.15,2013-03-09 19:40:00,
2013-03-09 13:42:00,72.2,63.1,29.74,SSE,158,8.0,-999.0,73,0.00,,,0.00,Wunderground v.1.15,2013-03-09 19:42:00,
2013-03-09 13:45:00,72.2,63.1,29.74,SSE,158,8.0,-999.0,73,0.00,,,0.00,Wunderground v.1.15,2013-03-09 19:45:00,
2013-03-09 13:47:00,72.2,63.1,29.74,SSE,158,8.0,-999.0,73,0.00,,,0.00,Wunderground v.1.15,2013-03-09 19:47:00,
2013-03-09 13:50:00,72.2,63.1,29.74,SSE,158,8.0,-999.0,73,0.00,,,0.00,Wunderground v.1.15,2013-03-09 19:50:00,
2013-03-09 13:52:00,72.2,63.1,29.74,SSE,158,8.0,-999.0,73,0.00,,,0.00,Wunderground v.1.15,2013-03-09 19:52:00,
2013-03-09 13:53:00,70.9,63.3,29.80,SE,142,7.0,19.0,77,0.00,,,0.00,Wunderground v.1.15,2013-03-09 19:53:00,
2013-03-09 13:55:00,72.2,63.1,29.74,SSE,158,8.0,-999.0,73,0.00,,,0.00,Wunderground v.1.15,2013-03-09 19:55:00,
2013-03-09 13:57:00,72.2,63.1,29.74,SSE,158,8.0,-999.0,73,0.00,,,0.00,Wunderground v.1.15,2013-03-09 19:57:00,
2013-03-09 14:00:00,72.2,63.1,29.74,SSE,158,8.0,-999.0,73,0.00,,,0.00,Wunderground v.1.15,2013-03-09 20:00:00,
2013-03-09 14:02:00,71.3,63.0,29.79,SE,146,10.0,19.0,75,0.00,,,0.00,Wunderground v.1.15,2013-03-09 20:02:00,
2013-03-09 14:05:00,72.2,63.1,29.74,SSE,158,8.0,-999.0,73,0.00,,,0.00,Wunderground v.1.15,2013-03-09 20:05:00,
2013-03-09 14:07:00,72.2,63.1,29.74,SSE,158,8.0,-999.0,73,0.00,,,0.00,Wunderground v.1.15,2013-03-09 20:07:00,
2013-03-09 14:08:00,71.5,63.2,29.79,SE,140,9.0,9.0,75,0.00,,,0.00,Wunderground v.1.15,2013-03-09 20:08:00,
2013-03-09 14:10:00,72.0,62.9,29.72,SSE,158,7.0,-999.0,73,0.00,,,0.00,Wunderground v.1.15,2013-03-09 20:10:00,
2013-03-09 14:12:00,72.0,62.9,29.72,SSE,158,7.0,-999.0,73,0.00,,,0.00,Wunderground v.1.15,2013-03-09 20:12:00,
2013-03-09 14:15:00,72.0,62.9,29.72,SSE,158,7.0,-999.0,73,0.00,,,0.00,Wunderground v.1.15,2013-03-09 20:15:00,
2013-03-09 14:17:00,71.5,63.2,29.79,SSE,158,8.0,19.0,75,0.00,,,0.00,Wunderground v.1.15,2013-03-09 20:17:00,
2013-03-09 14:20:00,72.0,62.9,29.72,SSE,158,7.0,-999.0,73,0.00,,,0.00,Wunderground v.1.15,2013-03-09 20:20:00,
2013-03-09 14:22:00,71.6,63.3,29.79,South,173,8.0,19.0,75,0.00,,,0.00,Wunderground v.1.15,2013-03-09 20:22:00,
2013-03-09 14:25:00,71.7,63.0,29.71,SSE,158,7.0,-999.0,74,0.00,,,0.00,Wunderground v.1.15,2013-03-09 20:25:00,
2013-03-09 14:27:00,71.6,63.3,29.78,ESE,115,8.0,19.0,75,0.00,,,0.00,Wunderground v.1.15,2013-03-09 20:27:00,
2013-03-09 14:30:00,71.7,63.0,29.71,SSE,158,7.0,-999.0,74,0.00,,,0.00,Wunderground v.1.15,2013-03-09 20:30:00,
2013-03-09 14:32:00,71.5,63.2,29.78,SSE,153,6.0,19.0,75,0.00,,,0.00,Wunderground v.1.15,2013-03-09 20:32:00,
2013-03-09 14:35:00,71.7,63.0,29.71,SSE,158,7.0,-999.0,74,0.00,,,0.00,Wunderground v.1.15,2013-03-09 20:35:00,
2013-03-09 14:37:00,71.3,63.0,29.78,SSE,148,6.0,6.0,75,0.00,,,0.00,Wunderground v.1.15,2013-03-09 20:37:00,
2013-03-09 14:40:00,71.5,63.2,29.70,SE,135,6.0,-999.0,75,0.00,,,0.00,Wunderground v.1.15,2013-03-09 20:40:00,
2013-03-09 14:42:00,71.5,63.2,29.70,SE,135,6.0,-999.0,75,0.00,,,0.00,Wunderground v.1.15,2013-03-09 20:42:00,
2013-03-09 14:43:00,71.3,63.0,29.78,ESE,121,8.0,8.0,75,0.00,,,0.00,Wunderground v.1.15,2013-03-09 20:43:00,
2013-03-09 14:45:00,71.5,63.2,29.70,SE,135,6.0,-999.0,75,0.00,,,0.00,Wunderground v.1.15,2013-03-09 20:45:00,
2013-03-09 14:47:00,71.5,63.2,29.70,SE,135,6.0,-999.0,75,0.00,,,0.00,Wunderground v.1.15,2013-03-09 20:47:00,
2013-03-09 14:50:00,71.5,63.2,29.70,SE,135,6.0,-999.0,75,0.00,,,0.00,Wunderground v.1.15,2013-03-09 20:50:00,
2013-03-09 14:52:00,71.5,63.2,29.70,SE,135,6.0,-999.0,75,0.00,,,0.00,Wunderground v.1.15,2013-03-09 20:52:00,
2013-03-09 14:55:00,71.1,62.8,29.70,SE,135,6.0,-999.0,75,0.00,,,0.00,Wunderground v.1.15,2013-03-09 20:55:00,
2013-03-09 14:57:00,71.1,62.8,29.70,SE,135,6.0,-999.0,75,0.00,,,0.00,Wunderground v.1.15,2013-03-09 20:57:00,
2013-03-09 15:00:00,71.1,62.8,29.70,SE,135,6.0,-999.0,75,0.00,,,0.00,Wunderground v.1.15,2013-03-09 21:00:00,
2013-03-09 15:02:00,71.1,62.8,29.70,SE,135,6.0,-999.0,75,0.00,,,0.00,Wunderground v.1.15,2013-03-09 21:02:00,
2013-03-09 15:05:00,71.1,62.8,29.70,SE,135,6.0,-999.0,75,0.00,,,0.00,Wunderground v.1.15,2013-03-09 21:05:00,
2013-03-09 15:07:00,71.1,62.8,29.70,SE,135,6.0,-999.0,75,0.00,,,0.00,Wunderground v.1.15,2013-03-09 21:07:00,
2013-03-09 15:10:00,70.6,62.7,29.70,ESE,113,7.0,-999.0,76,0.00,,,0.00,Wunderground v.1.15,2013-03-09 21:10:00,
2013-03-09 15:12:00,70.6,62.7,29.70,ESE,113,7.0,-999.0,76,0.00,,,0.00,Wunderground v.1.15,2013-03-09 21:12:00,
2013-03-09 15:15:00,70.6,62.7,29.70,ESE,113,7.0,-999.0,76,0.00,,,0.00,Wunderground v.1.15,2013-03-09 21:15:00,
2013-03-09 15:20:00,70.6,62.7,29.70,ESE,113,7.0,-999.0,76,0.00,,,0.84,Wunderground v.1.15,2013-03-09 21:20:00,
2013-03-09 15:25:00,70.7,62.4,29.72,SE,135,10.0,-999.0,75,0.00,,,0.84,Wunderground v.1.15,2013-03-09 21:25:00,
2013-03-09 15:30:00,70.7,62.4,29.72,SE,135,10.0,-999.0,75,0.00,,,0.84,Wunderground v.1.15,2013-03-09 21:30:00,
2013-03-09 15:35:00,70.7,62.4,29.72,SE,135,10.0,-999.0,75,0.00,,,0.84,Wunderground v.1.15,2013-03-09 21:35:00,
2013-03-09 15:40:00,70.4,62.5,29.73,SE,135,9.0,-999.0,76,0.00,,,0.84,Wunderground v.1.15,2013-03-09 21:40:00,
2013-03-09 15:45:00,70.4,62.5,29.73,SE,135,9.0,-999.0,76,0.00,,,0.84,Wunderground v.1.15,2013-03-09 21:45:00,
2013-03-09 15:50:00,70.4,62.5,29.73,SE,135,9.0,-999.0,76,0.00,,,0.84,Wunderground v.1.15,2013-03-09 21:50:00,
2013-03-09 15:55:00,69.7,62.9,29.74,ESE,113,9.0,-999.0,79,0.00,,,0.84,Wunderground v.1.15,2013-03-09 21:55:00,
2013-03-09 16:00:00,69.7,62.9,29.74,ESE,113,9.0,-999.0,79,0.00,,,0.84,Wunderground v.1.15,2013-03-09 22:00:00,
2013-03-09 16:05:00,69.7,62.9,29.74,ESE,113,9.0,-999.0,79,0.00,,,0.84,Wunderground v.1.15,2013-03-09 22:05:00,
2013-03-09 16:10:00,69.5,62.3,29.74,SE,135,11.0,-999.0,78,0.00,,,0.84,Wunderground v.1.15,2013-03-09 22:10:00,
2013-03-09 16:15:00,69.5,62.3,29.74,SE,135,11.0,-999.0,78,0.00,,,0.84,Wunderground v.1.15,2013-03-09 22:15:00,
2013-03-09 16:20:00,69.5,62.3,29.74,SE,135,11.0,-999.0,78,0.00,,,0.84,Wunderground v.1.15,2013-03-09 22:20:00,
2013-03-09 16:25:00,69.4,62.6,29.73,ESE,113,12.0,-999.0,79,0.00,,,0.84,Wunderground v.1.15,2013-03-09 22:25:00,
2013-03-09 16:30:00,69.4,62.6,29.73,ESE,113,12.0,-999.0,79,0.00,,,0.84,Wunderground v.1.15,2013-03-09 22:30:00,
2013-03-09 16:35:00,69.4,62.6,29.73,ESE,113,12.0,-999.0,79,0.00,,,0.84,Wunderground v.1.15,2013-03-09 22:35:00,
2013-03-09 16:40:00,69.1,62.3,29.73,ESE,113,12.0,-999.0,79,0.00,,,0.84,Wunderground v.1.15,2013-03-09 22:40:00,
2013-03-09 16:45:00,69.1,62.3,29.73,ESE,113,12.0,-999.0,79,0.00,,,0.84,Wunderground v.1.15,2013-03-09 22:45:00,
2013-03-09 16:50:00,69.1,62.3,29.73,ESE,113,12.0,-999.0,79,0.00,,,0.84,Wunderground v.1.15,2013-03-09 22:50:00,
2013-03-09 16:55:00,67.4,62.4,29.73,ESE,113,11.0,-999.0,84,0.00,,,0.84,Wunderground v.1.15,2013-03-09 22:55:00,
2013-03-09 17:00:00,67.4,62.4,29.73,ESE,113,11.0,-999.0,84,0.00,,,0.84,Wunderground v.1.15,2013-03-09 23:00:00,
2013-03-09 17:05:00,67.4,62.4,29.73,ESE,113,11.0,-999.0,84,0.00,,,0.84,Wunderground v.1.15,2013-03-09 23:05:00,
2013-03-09 17:10:00,66.0,62.3,29.74,SE,135,10.0,-999.0,88,0.00,,,0.84,Wunderground v.1.15,2013-03-09 23:10:00,
2013-03-09 17:15:00,66.0,62.3,29.74,SE,135,10.0,-999.0,88,0.00,,,0.84,Wunderground v.1.15,2013-03-09 23:15:00,
2013-03-09 17:20:00,66.0,62.3,29.74,SE,135,10.0,-999.0,88,0.00,,,0.84,Wunderground v.1.15,2013-03-09 23:20:00,
2013-03-09 17:25:00,66.6,62.3,29.75,ESE,113,11.0,-999.0,86,0.00,,,0.84,Wunderground v.1.15,2013-03-09 23:25:00,
2013-03-09 17:30:00,66.6,62.3,29.75,ESE,113,11.0,-999.0,86,0.00,,,0.84,Wunderground v.1.15,2013-03-09 23:30:00,
2013-03-09 17:35:00,66.6,62.3,29.75,ESE,113,11.0,-999.0,86,0.00,,,0.84,Wunderground v.1.15,2013-03-09 23:35:00,
2013-03-09 17:40:00,67.4,62.1,29.75,ESE,113,11.0,-999.0,83,0.00,,,0.84,Wunderground v.1.15,2013-03-09 23:40:00,
2013-03-09 17:45:00,67.4,62.1,29.75,ESE,113,11.0,-999.0,83,0.00,,,0.84,Wunderground v.1.15,2013-03-09 23:45:00,
2013-03-09 17:50:00,67.4,62.1,29.75,ESE,113,11.0,-999.0,83,0.00,,,0.84,Wunderground v.1.15,2013-03-09 23:50:00,
2013-03-09 17:55:00,67.5,61.8,29.76,ESE,113,10.0,-999.0,82,0.00,,,0.84,Wunderground v.1.15,2013-03-09 23:55:00,
2013-03-09 18:00:00,67.5,61.8,29.76,ESE,113,10.0,-999.0,82,0.00,,,0.84,Wunderground v.1.15,2013-03-10 00:00:00,
2013-03-09 18:05:00,67.5,61.8,29.76,ESE,113,10.0,-999.0,82,0.00,,,0.84,Wunderground v.1.15,2013-03-10 00:05:00,
2013-03-09 18:10:00,67.8,61.8,29.77,SE,135,11.0,-999.0,81,0.00,,,0.84,Wunderground v.1.15,2013-03-10 00:10:00,
2013-03-09 18:15:00,67.8,61.8,29.77,SE,135,11.0,-999.0,81,0.00,,,0.84,Wunderground v.1.15,2013-03-10 00:15:00,
2013-03-09 18:20:00,67.8,61.8,29.77,SE,135,11.0,-999.0,81,0.00,,,0.84,Wunderground v.1.15,2013-03-10 00:20:00,
2013-03-09 18:25:00,67.4,61.4,29.77,SE,135,11.0,-999.0,81,0.00,,,0.84,Wunderground v.1.15,2013-03-10 00:25:00,
2013-03-09 18:28:00,70.6,62.3,29.71,SE,139,11.0,11.0,75,0.00,,,0.00,Wunderground v.1.15,2013-03-10 00:28:00,
2013-03-09 18:30:00,67.4,61.4,29.77,SE,135,11.0,-999.0,81,0.00,,,0.84,Wunderground v.1.15,2013-03-10 00:30:00,
2013-03-09 18:35:00,67.4,61.4,29.77,SE,135,11.0,-999.0,81,0.00,,,0.84,Wunderground v.1.15,2013-03-10 00:35:00,
2013-03-09 18:40:00,67.2,61.5,29.76,ESE,113,10.0,-999.0,82,0.00,,,0.84,Wunderground v.1.15,2013-03-10 00:40:00,
2013-03-09 18:45:00,67.2,61.5,29.76,ESE,113,10.0,-999.0,82,0.00,,,0.84,Wunderground v.1.15,2013-03-10 00:45:00,
2013-03-09 18:50:00,67.2,61.5,29.76,ESE,113,10.0,-999.0,82,0.00,,,0.84,Wunderground v.1.15,2013-03-10 00:50:00,
2013-03-09 18:55:00,67.0,61.3,29.77,SE,135,11.0,-999.0,82,0.00,,,0.84,Wunderground v.1.15,2013-03-10 00:55:00,
2013-03-09 19:00:00,67.0,61.3,29.77,SE,135,11.0,-999.0,82,0.00,,,0.84,Wunderground v.1.15,2013-03-10 01:00:00,
2013-03-09 19:05:00,67.0,61.3,29.77,SE,135,11.0,-999.0,82,0.00,,,0.84,Wunderground v.1.15,2013-03-10 01:05:00,
2013-03-09 19:10:00,66.8,61.5,29.77,SE,135,11.0,-999.0,83,0.00,,,0.84,Wunderground v.1.15,2013-03-10 01:10:00,
2013-03-09 19:15:00,66.8,61.5,29.77,SE,135,11.0,-999.0,83,0.00,,,0.84,Wunderground v.1.15,2013-03-10 01:15:00,
2013-03-09 19:20:00,66.8,61.5,29.77,SE,135,11.0,-999.0,83,0.00,,,0.84,Wunderground v.1.15,2013-03-10 01:20:00,
2013-03-09 19:25:00,66.0,61.4,29.76,SE,135,11.0,-999.0,85,0.00,,,0.84,Wunderground v.1.15,2013-03-10 01:25:00,
2013-03-09 19:30:00,66.0,61.4,29.76,SE,135,11.0,-999.0,85,0.00,,,0.84,Wunderground v.1.15,2013-03-10 01:30:00,
2013-03-09 19:35:00,66.0,61.4,29.76,SE,135,11.0,-999.0,85,0.00,,,0.84,Wunderground v.1.15,2013-03-10 01:35:00,
2013-03-09 19:40:00,64.4,61.1,29.77,SE,135,8.0,-999.0,89,0.00,,,0.84,Wunderground v.1.15,2013-03-10 01:40:00,
2013-03-09 19:45:00,64.4,61.1,29.77,SE,135,8.0,-999.0,89,0.00,,,0.84,Wunderground v.1.15,2013-03-10 01:45:00,
2013-03-09 19:50:00,64.4,61.1,29.77,SE,135,8.0,-999.0,89,0.00,,,0.84,Wunderground v.1.15,2013-03-10 01:50:00,
2013-03-09 19:55:00,64.6,61.0,29.76,SE,135,7.0,-999.0,88,0.00,,,0.84,Wunderground v.1.15,2013-03-10 01:55:00,
2013-03-09 20:00:00,64.6,61.0,29.76,SE,135,7.0,-999.0,88,0.00,,,0.84,Wunderground v.1.15,2013-03-10 02:00:00,
2013-03-09 20:05:00,64.6,61.0,29.76,SE,135,7.0,-999.0,88,0.00,,,0.84,Wunderground v.1.15,2013-03-10 02:05:00,
2013-03-09 20:10:00,64.6,61.0,29.74,SE,135,6.0,-999.0,88,0.00,,,0.84,Wunderground v.1.15,2013-03-10 02:10:00,
2013-03-09 20:15:00,64.6,61.0,29.74,SE,135,6.0,-999.0,88,0.00,,,0.84,Wunderground v.1.15,2013-03-10 02:15:00,
2013-03-09 20:20:00,64.6,61.0,29.74,SE,135,6.0,-999.0,88,0.00,,,0.84,Wunderground v.1.15,2013-03-10 02:20:00,
2013-03-09 20:25:00,64.6,61.0,29.73,ESE,113,8.0,-999.0,88,0.00,,,0.84,Wunderground v.1.15,2013-03-10 02:25:00,
2013-03-09 20:30:00,64.6,61.0,29.73,ESE,113,8.0,-999.0,88,0.00,,,0.84,Wunderground v.1.15,2013-03-10 02:30:00,
2013-03-09 20:35:00,64.6,61.0,29.73,ESE,113,8.0,-999.0,88,0.00,,,0.84,Wunderground v.1.15,2013-03-10 02:35:00,
2013-03-09 20:40:00,65.0,61.0,29.75,SE,135,10.0,-999.0,87,0.00,,,0.84,Wunderground v.1.15,2013-03-10 02:40:00,
2013-03-09 20:45:00,65.0,61.0,29.75,SE,135,10.0,-999.0,87,0.00,,,0.84,Wunderground v.1.15,2013-03-10 02:45:00,
2013-03-09 20:50:00,65.0,61.0,29.75,SE,135,10.0,-999.0,87,0.00,,,0.84,Wunderground v.1.15,2013-03-10 02:50:00,
2013-03-09 20:55:00,64.6,61.0,29.76,SE,135,8.0,-999.0,88,0.01,,,0.84,Wunderground v.1.15,2013-03-10 02:55:00,
2013-03-09 21:00:00,64.6,61.0,29.76,SE,135,8.0,-999.0,88,0.01,,,0.84,Wunderground v.1.15,2013-03-10 03:00:00,
2013-03-09 21:05:00,64.6,61.0,29.76,SE,135,8.0,-999.0,88,0.01,,,0.84,Wunderground v.1.15,2013-03-10 03:05:00,
2013-03-09 21:10:00,63.9,60.9,29.75,SE,135,10.0,-999.0,90,0.04,,,0.84,Wunderground v.1.15,2013-03-10 03:10:00,
2013-03-09 21:15:00,63.9,60.9,29.75,SE,135,10.0,-999.0,90,0.04,,,0.84,Wunderground v.1.15,2013-03-10 03:15:00,
2013-03-09 21:20:00,63.9,60.9,29.75,SE,135,10.0,-999.0,90,0.04,,,0.84,Wunderground v.1.15,2013-03-10 03:20:00,
2013-03-09 21:25:00,63.3,60.9,29.76,SE,135,10.0,-999.0,92,0.07,,,0.84,Wunderground v.1.15,2013-03-10 03:25:00,
2013-03-09 21:30:00,63.3,60.9,29.76,SE,135,10.0,-999.0,92,0.07,,,0.84,Wunderground v.1.15,2013-03-10 03:30:00,
2013-03-09 21:35:00,63.3,60.9,29.76,SE,135,10.0,-999.0,92,0.07,,,0.84,Wunderground v.1.15,2013-03-10 03:35:00,
2013-03-09 21:40:00,62.8,60.7,29.76,SE,135,4.0,-999.0,93,0.12,,,0.84,Wunderground v.1.15,2013-03-10 03:40:00,
2013-03-09 21:45:00,62.8,60.7,29.76,SE,135,4.0,-999.0,93,0.12,,,0.84,Wunderground v.1.15,2013-03-10 03:45:00,
2013-03-09 21:50:00,62.8,60.7,29.76,SE,135,4.0,-999.0,93,0.12,,,0.84,Wunderground v.1.15,2013-03-10 03:50:00,
2013-03-09 21:55:00,62.5,60.7,29.76,SE,135,7.0,-999.0,94,0.15,,,0.84,Wunderground v.1.15,2013-03-10 03:55:00,
2013-03-09 22:00:00,62.5,60.7,29.76,SE,135,7.0,-999.0,94,0.15,,,0.84,Wunderground v.1.15,2013-03-10 04:00:00,
2013-03-09 22:05:00,62.5,60.7,29.76,SE,135,7.0,-999.0,94,0.15,,,0.84,Wunderground v.1.15,2013-03-10 04:05:00,
2013-03-09 22:10:00,62.4,60.9,29.75,SE,135,6.0,-999.0,95,0.19,,,0.84,Wunderground v.1.15,2013-03-10 04:10:00,
2013-03-09 22:15:00,62.4,60.9,29.75,SE,135,6.0,-999.0,95,0.19,,,0.84,Wunderground v.1.15,2013-03-10 04:15:00,
2013-03-09 22:20:00,62.4,60.9,29.75,SE,135,6.0,-999.0,95,0.19,,,0.84,Wunderground v.1.15,2013-03-10 04:20:00,
2013-03-09 22:25:00,62.5,61.0,29.74,SSE,158,6.0,-999.0,95,0.20,,,0.84,Wunderground v.1.15,2013-03-10 04:25:00,
2013-03-09 22:30:00,62.5,61.0,29.74,SSE,158,6.0,-999.0,95,0.20,,,0.84,Wunderground v.1.15,2013-03-10 04:30:00,
2013-03-09 22:35:00,62.5,61.0,29.74,SSE,158,6.0,-999.0,95,0.20,,,0.84,Wunderground v.1.15,2013-03-10 04:35:00,
2013-03-09 22:40:00,62.4,60.9,29.75,South,180,1.0,-999.0,95,0.31,,,0.84,Wunderground v.1.15,2013-03-10 04:40:00,
2013-03-09 22:45:00,62.4,60.9,29.75,South,180,1.0,-999.0,95,0.31,,,0.84,Wunderground v.1.15,2013-03-10 04:45:00,
2013-03-09 22:50:00,62.4,60.9,29.75,South,180,1.0,-999.0,95,0.31,,,0.84,Wunderground v.1.15,2013-03-10 04:50:00,
2013-03-09 22:55:00,61.7,60.5,29.75,South,180,2.0,-999.0,96,0.51,,,0.84,Wunderground v.1.15,2013-03-10 04:55:00,
2013-03-09 23:00:00,61.7,60.5,29.75,South,180,2.0,-999.0,96,0.51,,,0.84,Wunderground v.1.15,2013-03-10 05:00:00,
2013-03-09 23:05:00,61.7,60.5,29.75,South,180,2.0,-999.0,96,0.51,,,0.84,Wunderground v.1.15,2013-03-10 05:05:00,
2013-03-09 23:10:00,61.2,60.1,29.76,SW,225,1.0,-999.0,96,0.51,,,0.84,Wunderground v.1.15,2013-03-10 05:10:00,
2013-03-09 23:15:00,61.2,60.1,29.76,SW,225,1.0,-999.0,96,0.51,,,0.84,Wunderground v.1.15,2013-03-10 05:15:00,
2013-03-09 23:20:00,61.2,60.1,29.76,SW,225,1.0,-999.0,96,0.51,,,0.84,Wunderground v.1.15,2013-03-10 05:20:00,
2013-03-09 23:25:00,60.1,58.7,29.77,SW,225,2.0,-999.0,95,0.52,,,0.84,Wunderground v.1.15,2013-03-10 05:25:00,
2013-03-09 23:30:00,60.1,58.7,29.77,SW,225,2.0,-999.0,95,0.52,,,0.84,Wunderground v.1.15,2013-03-10 05:30:00,
2013-03-09 23:35:00,60.1,58.7,29.77,SW,225,2.0,-999.0,95,0.52,,,0.84,Wunderground v.1.15,2013-03-10 05:35:00,
2013-03-09 23:40:00,59.3,57.6,29.76,South,180,1.0,-999.0,94,0.39,,,0.84,Wunderground v.1.15,2013-03-10 05:40:00,
2013-03-09 23:45:00,59.3,57.6,29.76,South,180,1.0,-999.0,94,0.39,,,0.84,Wunderground v.1.15,2013-03-10 05:45:00,
2013-03-09 23:50:00,59.3,57.6,29.76,South,180,1.0,-999.0,94,0.39,,,0.84,Wunderground v.1.15,2013-03-10 05:50:00,
2013-03-09 23:55:00,59.0,57.3,29.75,West,270,0.0,-999.0,94,0.17,,,0.84,Wunderground v.1.15,2013-03-10 05:55:00,